Terminal Aerodrome Forecast
Issued by NWS

Home | Current Version | Previous Version | Text Only | Print | Product List | Glossary On
Versions: 1 2 3 4 5 6 7 8 9 10 11 12 13 14 15 16 17 18 19 20 21 22 23 24
000
FTUS46 KMFR 302300 CCA
TAFOTH
TAF COR
KOTH 302359Z 0100/0124 36022G28KT P6SM SKC
     FM010500 35009KT P6SM SKC
     FM011000 36004KT P6SM FEW006
     FM011800 33012KT P6SM SCT250=

USA.gov is the U.S. government's official web portal to all federal, state and local government web resources and services.